LTATLTAF

Guest
Details From LTAT - ERHAC
To LTAF - ADANA
Flight Number -
Tags generated
Created
Modified
Stats Distance 161 nm / 298 km
Max Altitude 14,900 ft / 4,542 m
Waypoints 3
Social Downloads 3
Likes 0
Share VATSIM

Download

Looking for another format? Having issues loading an existing format? Contact us
Advertisement - Login to hide

Notes

Basic altitude profile: - Ascent Rate: 2500ft/min - Ascent Speed: 250kts - Cruise Altitude: 30000ft - Cruise Speed: 450kts - Descent Rate: 1500ft/min - Descent Speed: 250kts Options: - Use NATs: yes - Use PACOTS: yes - Use low airways: yes - Use high airways: yes

Route

LTAT POGEN LTAF

ID Type Via Altitude Latitude Longitude Leg Dist Tot Dist Heading (true) Name
O LTAT APT - 0 ft / 0 m 38.43535˚ 38.09101˚ - 0 nm - ERHAC
POGEN FIX - 14,900 ft / 4,542 m 37.50306˚ 36.69361˚ 86 nm 86 nm 230° / 229° -
O LTAF APT - 0 ft / 0 m 36.98214˚ 35.28039˚ 74 nm 161 nm 246° / 245° ADANA

Altitude Profile

Advertisement - Login to hide

LTAT

Details ICAO LTAT (MLX)
Name ERHAC
Region Turkey
Timezone Europe/Istanbul (UTC+3.0)
Stats Elevation 2,828 ft / 862 m (AMSL)
Location 38.435346° 38.091007°
Runways 1
Magnetic Variation 5.704° E

METAR

LTAT 150820Z VRB02KT 4500 BR OVC004 00/00 Q1023 NOSIG

Decode

TAF

Not found

Departure Runways

ID Width Length Bearing (true) Bearing (mag) Surface Threshold Offset Overrun Length
03 148 ft / 45 m 11,000 ft / 3,353 m 31.39° 25.69° Asphalt 0 ft / 0 m 868 ft / 265 m
21 148 ft / 45 m 11,000 ft / 3,353 m 211.40° 205.70° Asphalt 0 ft / 0 m 895 ft / 273 m

LTAF

Details ICAO LTAF (ADA)
Name ADANA
Region Turkey
Timezone Europe/Istanbul (UTC+3.0)
Stats Elevation 65 ft / 20 m (AMSL)
Location 36.982142° 35.280394°
Runways 1
Magnetic Variation 5.353° E

METAR

LTAF 150820Z 03005KT 350V060 CAVOK 17/07 Q1020 NOSIG

Decode

TAF

Not found

Destination Runways

ID Width Length Bearing (true) Bearing (mag) Surface Threshold Offset Overrun Length
05 148 ft / 45 m 8,979 ft / 2,737 m 53.45° 48.10° Asphalt 0 ft / 0 m 197 ft / 60 m
23 148 ft / 45 m 8,979 ft / 2,737 m 233.47° 228.12° Asphalt 0 ft / 0 m 197 ft / 60 m

Approach Navaids

Runway Type Ident Frequency Range Bearing (true) Bearing (mag) Slope Elevation
05 Localiser IADA 108.70 MHz 18 nm / 33 km 53.01° 47.66° - 65 ft / 20 m (AMSL)
05 Glidescope IADA 108.70 MHz 10 nm / 19 km 53.46° 48.11° 3.00° 65 ft / 20 m (AMSL)